Terminal Aerodrome Forecast
Issued by NWS

Home | Current Version | Previous Version | Graphics & Text | Print | Product List | Glossary On
Versions: 1 2 3 4 5 6 7 8 9 10 11 12 13 14 15 16 17 18 19 20 21
000
FTUS42 KMHX 172018 AAA
TAFOAJ
TAF AMD
KOAJ 172018Z 1720/1818 06005KT P6SM OVC015
     FM172200 VRB04KT 5SM -DZ VCSH OVC009
     FM180100 VRB04KT 4SM -DZ BKN008
     FM180900 33006KT P6SM OVC008
     FM181200 35006KT P6SM BKN015
     FM181300 36007KT P6SM SKC
      AMD LTD TO CLD VIS AND WIND=

USA.gov is the U.S. government's official web portal to all federal, state and local government web resources and services.